sensor_id;sensor_type;location;lat;lon;timestamp;P1;durP1;ratioP1;P2;durP2;ratioP2
19848;SDS011;10085;51.120;6.956;2023-04-03T00:03:02;6.68;;;5.68;;
19848;SDS011;10085;51.120;6.956;2023-04-03T00:08:06;8.75;;;6.30;;
19848;SDS011;10085;51.120;6.956;2023-04-03T00:13:10;7.53;;;5.50;;
19848;SDS011;10085;51.120;6.956;2023-04-03T00:18:13;7.80;;;6.03;;
19848;SDS011;10085;51.120;6.956;2023-04-03T00:23:18;6.50;;;5.45;;
19848;SDS011;10085;51.120;6.956;2023-04-03T00:28:20;6.55;;;5.40;;
19848;SDS011;10085;51.120;6.956;2023-04-03T00:33:24;7.43;;;5.90;;
19848;SDS011;10085;51.120;6.956;2023-04-03T00:38:28;7.30;;;5.70;;
19848;SDS011;10085;51.120;6.956;2023-04-03T00:43:31;7.45;;;6.00;;
19848;SDS011;10085;51.120;6.956;2023-04-03T00:48:34;7.50;;;6.10;;
19848;SDS011;10085;51.120;6.956;2023-04-03T00:53:41;7.15;;;5.82;;
19848;SDS011;10085;51.120;6.956;2023-04-03T00:58:47;6.90;;;5.88;;
19848;SDS011;10085;51.120;6.956;2023-04-03T01:03:51;10.85;;;5.85;;
19848;SDS011;10085;51.120;6.956;2023-04-03T01:08:56;7.93;;;6.03;;
19848;SDS011;10085;51.120;6.956;2023-04-03T01:14:00;6.45;;;5.47;;
19848;SDS011;10085;51.120;6.956;2023-04-03T01:19:03;7.13;;;5.40;;
19848;SDS011;10085;51.120;6.956;2023-04-03T01:24:14;6.60;;;5.22;;
19848;SDS011;10085;51.120;6.956;2023-04-03T01:29:24;7.57;;;5.60;;
19848;SDS011;10085;51.120;6.956;2023-04-03T01:34:29;7.63;;;5.78;;
19848;SDS011;10085;51.120;6.956;2023-04-03T01:39:33;8.07;;;5.90;;
19848;SDS011;10085;51.120;6.956;2023-04-03T01:44:36;7.18;;;5.75;;
19848;SDS011;10085;51.120;6.956;2023-04-03T01:49:40;10.55;;;5.65;;
19848;SDS011;10085;51.120;6.956;2023-04-03T01:54:43;6.28;;;5.15;;
19848;SDS011;10085;51.120;6.956;2023-04-03T01:59:46;6.93;;;5.15;;
19848;SDS011;10085;51.120;6.956;2023-04-03T02:04:50;7.50;;;5.50;;
19848;SDS011;10085;51.120;6.956;2023-04-03T02:09:53;7.32;;;5.60;;
19848;SDS011;10085;51.120;6.956;2023-04-03T02:14:56;6.97;;;5.75;;
19848;SDS011;10085;51.120;6.956;2023-04-03T02:20:01;7.60;;;5.80;;
19848;SDS011;10085;51.120;6.956;2023-04-03T02:25:07;7.32;;;5.60;;
19848;SDS011;10085;51.120;6.956;2023-04-03T02:30:11;7.28;;;5.50;;
19848;SDS011;10085;51.120;6.956;2023-04-03T02:35:17;6.32;;;4.75;;
19848;SDS011;10085;51.120;6.956;2023-04-03T02:40:21;10.10;;;5.53;;
19848;SDS011;10085;51.120;6.956;2023-04-03T02:45:24;6.38;;;4.85;;
19848;SDS011;10085;51.120;6.956;2023-04-03T02:50:28;7.95;;;5.10;;
19848;SDS011;10085;51.120;6.956;2023-04-03T02:55:31;6.65;;;4.97;;
19848;SDS011;10085;51.120;6.956;2023-04-03T03:00:34;6.93;;;5.20;;
19848;SDS011;10085;51.120;6.956;2023-04-03T03:05:39;7.65;;;5.30;;
19848;SDS011;10085;51.120;6.956;2023-04-03T03:10:42;6.40;;;4.88;;
19848;SDS011;10085;51.120;6.956;2023-04-03T03:15:45;7.22;;;5.10;;
19848;SDS011;10085;51.120;6.956;2023-04-03T03:20:51;6.20;;;4.65;;
19848;SDS011;10085;51.120;6.956;2023-04-03T03:25:55;7.32;;;5.22;;
19848;SDS011;10085;51.120;6.956;2023-04-03T03:30:58;7.72;;;5.05;;
19848;SDS011;10085;51.120;6.956;2023-04-03T03:36:03;6.22;;;4.20;;
19848;SDS011;10085;51.120;6.956;2023-04-03T03:41:06;5.97;;;4.45;;
19848;SDS011;10085;51.120;6.956;2023-04-03T03:46:09;6.75;;;4.70;;
19848;SDS011;10085;51.120;6.956;2023-04-03T03:51:13;6.65;;;4.70;;
19848;SDS011;10085;51.120;6.956;2023-04-03T03:56:17;4.97;;;4.00;;
19848;SDS011;10085;51.120;6.956;2023-04-03T04:01:20;5.78;;;4.30;;
19848;SDS011;10085;51.120;6.956;2023-04-03T04:06:25;5.63;;;4.10;;
19848;SDS011;10085;51.120;6.956;2023-04-03T04:11:31;5.05;;;4.00;;
19848;SDS011;10085;51.120;6.956;2023-04-03T04:16:35;5.57;;;4.13;;
19848;SDS011;10085;51.120;6.956;2023-04-03T04:21:44;5.10;;;4.35;;
19848;SDS011;10085;51.120;6.956;2023-04-03T04:26:47;5.85;;;4.68;;
19848;SDS011;10085;51.120;6.956;2023-04-03T04:31:51;6.20;;;4.50;;
19848;SDS011;10085;51.120;6.956;2023-04-03T04:36:57;5.75;;;4.32;;
19848;SDS011;10085;51.120;6.956;2023-04-03T04:42:01;5.57;;;4.40;;
19848;SDS011;10085;51.120;6.956;2023-04-03T04:47:06;5.22;;;3.65;;
19848;SDS011;10085;51.120;6.956;2023-04-03T04:52:10;5.13;;;4.00;;
19848;SDS011;10085;51.120;6.956;2023-04-03T04:57:14;6.03;;;4.10;;
19848;SDS011;10085;51.120;6.956;2023-04-03T05:02:18;6.20;;;4.10;;
19848;SDS011;10085;51.120;6.956;2023-04-03T05:07:22;5.32;;;3.63;;
19848;SDS011;10085;51.120;6.956;2023-04-03T05:12:27;5.00;;;3.67;;
19848;SDS011;10085;51.120;6.956;2023-04-03T05:17:34;5.68;;;3.65;;
19848;SDS011;10085;51.120;6.956;2023-04-03T05:22:40;5.60;;;4.00;;
19848;SDS011;10085;51.120;6.956;2023-04-03T05:27:44;4.45;;;3.55;;
19848;SDS011;10085;51.120;6.956;2023-04-03T05:32:47;5.75;;;3.90;;
19848;SDS011;10085;51.120;6.956;2023-04-03T05:37:54;4.65;;;3.85;;
19848;SDS011;10085;51.120;6.956;2023-04-03T05:42:58;5.78;;;4.00;;
19848;SDS011;10085;51.120;6.956;2023-04-03T05:48:04;6.82;;;4.05;;
19848;SDS011;10085;51.120;6.956;2023-04-03T05:53:09;5.35;;;3.90;;
19848;SDS011;10085;51.120;6.956;2023-04-03T05:58:18;5.00;;;3.97;;
19848;SDS011;10085;51.120;6.956;2023-04-03T06:03:22;5.50;;;3.72;;
19848;SDS011;10085;51.120;6.956;2023-04-03T06:08:27;4.05;;;3.30;;
19848;SDS011;10085;51.120;6.956;2023-04-03T06:13:31;5.68;;;3.33;;
19848;SDS011;10085;51.120;6.956;2023-04-03T06:18:34;4.22;;;3.17;;
19848;SDS011;10085;51.120;6.956;2023-04-03T06:23:38;3.85;;;3.00;;
19848;SDS011;10085;51.120;6.956;2023-04-03T06:28:41;4.68;;;3.17;;
19848;SDS011;10085;51.120;6.956;2023-04-03T06:33:44;4.22;;;3.10;;
19848;SDS011;10085;51.120;6.956;2023-04-03T06:38:48;3.88;;;3.25;;
19848;SDS011;10085;51.120;6.956;2023-04-03T06:43:51;4.13;;;3.13;;
19848;SDS011;10085;51.120;6.956;2023-04-03T06:48:54;3.85;;;2.92;;
19848;SDS011;10085;51.120;6.956;2023-04-03T06:53:58;3.78;;;3.13;;
19848;SDS011;10085;51.120;6.956;2023-04-03T06:59:01;3.67;;;3.03;;
19848;SDS011;10085;51.120;6.956;2023-04-03T07:04:05;4.70;;;3.00;;
19848;SDS011;10085;51.120;6.956;2023-04-03T07:09:09;3.60;;;2.70;;
19848;SDS011;10085;51.120;6.956;2023-04-03T07:14:12;3.10;;;2.70;;
19848;SDS011;10085;51.120;6.956;2023-04-03T07:19:15;3.47;;;2.95;;
19848;SDS011;10085;51.120;6.956;2023-04-03T07:24:20;3.03;;;2.72;;
19848;SDS011;10085;51.120;6.956;2023-04-03T07:29:23;3.72;;;2.80;;
19848;SDS011;10085;51.120;6.956;2023-04-03T07:34:26;3.03;;;2.40;;
19848;SDS011;10085;51.120;6.956;2023-04-03T07:39:33;3.10;;;2.72;;
19848;SDS011;10085;51.120;6.956;2023-04-03T07:44:57;2.60;;;2.30;;
19848;SDS011;10085;51.120;6.956;2023-04-03T07:49:59;3.83;;;2.13;;
19848;SDS011;10085;51.120;6.956;2023-04-03T07:55:04;3.13;;;2.55;;
19848;SDS011;10085;51.120;6.956;2023-04-03T08:00:08;2.10;;;1.90;;
19848;SDS011;10085;51.120;6.956;2023-04-03T08:05:14;2.33;;;2.08;;
19848;SDS011;10085;51.120;6.956;2023-04-03T08:10:19;2.83;;;2.40;;
19848;SDS011;10085;51.120;6.956;2023-04-03T08:15:21;2.28;;;2.08;;
19848;SDS011;10085;51.120;6.956;2023-04-03T08:20:24;2.67;;;2.10;;
19848;SDS011;10085;51.120;6.956;2023-04-03T08:25:28;2.65;;;2.10;;
19848;SDS011;10085;51.120;6.956;2023-04-03T08:30:32;2.30;;;2.00;;
19848;SDS011;10085;51.120;6.956;2023-04-03T08:41:48;2.28;;;1.88;;
19848;SDS011;10085;51.120;6.956;2023-04-03T08:47:01;2.22;;;1.73;;
19848;SDS011;10085;51.120;6.956;2023-04-03T08:58:16;2.50;;;1.60;;
19848;SDS011;10085;51.120;6.956;2023-04-03T09:03:21;3.88;;;1.73;;
19848;SDS011;10085;51.120;6.956;2023-04-03T09:08:26;3.00;;;1.30;;
19848;SDS011;10085;51.120;6.956;2023-04-03T09:13:33;1.95;;;1.45;;
19848;SDS011;10085;51.120;6.956;2023-04-03T09:18:40;5.32;;;1.50;;
19848;SDS011;10085;51.120;6.956;2023-04-03T09:23:49;3.08;;;1.50;;
19848;SDS011;10085;51.120;6.956;2023-04-03T09:28:54;2.78;;;1.35;;
19848;SDS011;10085;51.120;6.956;2023-04-03T09:33:59;2.55;;;1.60;;
19848;SDS011;10085;51.120;6.956;2023-04-03T09:39:05;1.77;;;1.40;;
19848;SDS011;10085;51.120;6.956;2023-04-03T09:44:20;4.47;;;1.33;;
19848;SDS011;10085;51.120;6.956;2023-04-03T09:49:24;2.17;;;1.48;;
19848;SDS011;10085;51.120;6.956;2023-04-03T09:54:31;7.13;;;1.60;;
19848;SDS011;10085;51.120;6.956;2023-04-03T09:59:41;4.30;;;1.20;;
19848;SDS011;10085;51.120;6.956;2023-04-03T10:04:46;1.75;;;1.40;;
19848;SDS011;10085;51.120;6.956;2023-04-03T10:10:16;2.20;;;1.33;;
19848;SDS011;10085;51.120;6.956;2023-04-03T10:15:22;1.98;;;1.35;;
19848;SDS011;10085;51.120;6.956;2023-04-03T10:20:30;2.20;;;1.05;;
19848;SDS011;10085;51.120;6.956;2023-04-03T10:31:10;1.67;;;1.30;;
19848;SDS011;10085;51.120;6.956;2023-04-03T10:36:19;1.95;;;1.30;;
19848;SDS011;10085;51.120;6.956;2023-04-03T10:41:29;1.77;;;1.30;;
19848;SDS011;10085;51.120;6.956;2023-04-03T10:46:40;2.55;;;1.30;;
19848;SDS011;10085;51.120;6.956;2023-04-03T10:51:47;1.58;;;1.23;;
19848;SDS011;10085;51.120;6.956;2023-04-03T10:56:55;1.48;;;1.13;;
19848;SDS011;10085;51.120;6.956;2023-04-03T11:02:16;3.05;;;1.25;;
19848;SDS011;10085;51.120;6.956;2023-04-03T11:07:24;3.08;;;1.40;;
19848;SDS011;10085;51.120;6.956;2023-04-03T11:12:39;1.30;;;1.20;;
19848;SDS011;10085;51.120;6.956;2023-04-03T11:17:48;2.22;;;1.20;;
19848;SDS011;10085;51.120;6.956;2023-04-03T11:22:57;1.30;;;1.20;;
19848;SDS011;10085;51.120;6.956;2023-04-03T11:28:03;2.67;;;1.02;;
19848;SDS011;10085;51.120;6.956;2023-04-03T11:33:17;2.13;;;1.30;;
19848;SDS011;10085;51.120;6.956;2023-04-03T11:38:35;1.27;;;1.02;;
19848;SDS011;10085;51.120;6.956;2023-04-03T11:43:42;1.40;;;1.00;;
19848;SDS011;10085;51.120;6.956;2023-04-03T11:54:56;1.98;;;1.20;;
19848;SDS011;10085;51.120;6.956;2023-04-03T11:59:59;2.67;;;1.02;;
19848;SDS011;10085;51.120;6.956;2023-04-03T12:10:28;1.55;;;1.10;;
19848;SDS011;10085;51.120;6.956;2023-04-03T12:20:54;1.38;;;1.02;;
19848;SDS011;10085;51.120;6.956;2023-04-03T12:26:05;1.50;;;1.10;;
19848;SDS011;10085;51.120;6.956;2023-04-03T12:31:23;1.40;;;1.15;;
19848;SDS011;10085;51.120;6.956;2023-04-03T12:36:30;1.33;;;1.05;;
19848;SDS011;10085;51.120;6.956;2023-04-03T12:41:40;1.67;;;1.00;;
19848;SDS011;10085;51.120;6.956;2023-04-03T12:46:48;2.47;;;1.13;;
19848;SDS011;10085;51.120;6.956;2023-04-03T12:51:54;4.38;;;1.20;;
19848;SDS011;10085;51.120;6.956;2023-04-03T12:57:08;1.58;;;1.15;;
19848;SDS011;10085;51.120;6.956;2023-04-03T13:02:22;2.65;;;1.17;;
19848;SDS011;10085;51.120;6.956;2023-04-03T13:07:29;1.40;;;1.00;;
19848;SDS011;10085;51.120;6.956;2023-04-03T13:12:34;1.17;;;1.08;;
19848;SDS011;10085;51.120;6.956;2023-04-03T13:17:38;2.05;;;1.20;;
19848;SDS011;10085;51.120;6.956;2023-04-03T13:22:45;1.70;;;1.05;;
19848;SDS011;10085;51.120;6.956;2023-04-03T13:27:54;2.22;;;1.40;;
19848;SDS011;10085;51.120;6.956;2023-04-03T13:33:05;3.67;;;1.33;;
19848;SDS011;10085;51.120;6.956;2023-04-03T13:38:23;1.33;;;1.00;;
19848;SDS011;10085;51.120;6.956;2023-04-03T13:43:28;1.42;;;0.98;;
19848;SDS011;10085;51.120;6.956;2023-04-03T13:48:36;3.05;;;1.20;;
19848;SDS011;10085;51.120;6.956;2023-04-03T13:53:44;2.15;;;1.10;;
19848;SDS011;10085;51.120;6.956;2023-04-03T14:04:23;1.27;;;0.95;;
19848;SDS011;10085;51.120;6.956;2023-04-03T14:09:29;2.05;;;1.30;;
19848;SDS011;10085;51.120;6.956;2023-04-03T14:14:33;2.78;;;1.40;;
19848;SDS011;10085;51.120;6.956;2023-04-03T14:19:37;1.45;;;1.00;;
19848;SDS011;10085;51.120;6.956;2023-04-03T14:24:41;1.80;;;1.10;;
19848;SDS011;10085;51.120;6.956;2023-04-03T14:29:44;1.77;;;1.00;;
19848;SDS011;10085;51.120;6.956;2023-04-03T14:34:49;1.00;;;1.00;;
19848;SDS011;10085;51.120;6.956;2023-04-03T14:39:56;1.85;;;0.98;;
19848;SDS011;10085;51.120;6.956;2023-04-03T14:45:00;1.88;;;1.30;;
19848;SDS011;10085;51.120;6.956;2023-04-03T14:50:06;2.45;;;1.15;;
19848;SDS011;10085;51.120;6.956;2023-04-03T14:55:12;1.40;;;1.05;;
19848;SDS011;10085;51.120;6.956;2023-04-03T15:00:18;1.83;;;1.08;;
19848;SDS011;10085;51.120;6.956;2023-04-03T15:05:22;2.03;;;1.20;;
19848;SDS011;10085;51.120;6.956;2023-04-03T15:10:26;4.03;;;1.20;;
19848;SDS011;10085;51.120;6.956;2023-04-03T15:15:30;1.38;;;1.10;;
19848;SDS011;10085;51.120;6.956;2023-04-03T15:20:33;1.88;;;1.10;;
19848;SDS011;10085;51.120;6.956;2023-04-03T15:25:37;1.50;;;1.20;;
19848;SDS011;10085;51.120;6.956;2023-04-03T15:30:40;2.03;;;1.10;;
19848;SDS011;10085;51.120;6.956;2023-04-03T15:35:44;2.55;;;1.20;;
19848;SDS011;10085;51.120;6.956;2023-04-03T15:40:48;1.92;;;1.00;;
19848;SDS011;10085;51.120;6.956;2023-04-03T15:45:51;2.53;;;1.10;;
19848;SDS011;10085;51.120;6.956;2023-04-03T15:50:56;5.35;;;1.50;;
19848;SDS011;10085;51.120;6.956;2023-04-03T15:56:01;16.13;;;2.60;;
19848;SDS011;10085;51.120;6.956;2023-04-03T16:01:03;10.80;;;1.65;;
19848;SDS011;10085;51.120;6.956;2023-04-03T16:06:06;10.23;;;1.63;;
19848;SDS011;10085;51.120;6.956;2023-04-03T16:11:10;6.75;;;1.90;;
19848;SDS011;10085;51.120;6.956;2023-04-03T16:16:13;6.07;;;1.50;;
19848;SDS011;10085;51.120;6.956;2023-04-03T16:21:16;5.20;;;1.60;;
19848;SDS011;10085;51.120;6.956;2023-04-03T16:26:21;1.77;;;1.30;;
19848;SDS011;10085;51.120;6.956;2023-04-03T16:31:24;4.78;;;1.67;;
19848;SDS011;10085;51.120;6.956;2023-04-03T16:36:27;3.20;;;1.25;;
19848;SDS011;10085;51.120;6.956;2023-04-03T16:41:31;3.10;;;1.52;;
19848;SDS011;10085;51.120;6.956;2023-04-03T16:46:34;6.90;;;2.08;;
19848;SDS011;10085;51.120;6.956;2023-04-03T16:51:37;4.50;;;1.70;;
19848;SDS011;10085;51.120;6.956;2023-04-03T16:56:41;7.05;;;1.90;;
19848;SDS011;10085;51.120;6.956;2023-04-03T17:01:44;6.70;;;1.70;;
19848;SDS011;10085;51.120;6.956;2023-04-03T17:06:47;5.95;;;2.03;;
19848;SDS011;10085;51.120;6.956;2023-04-03T17:11:52;7.32;;;1.98;;
19848;SDS011;10085;51.120;6.956;2023-04-03T17:16:55;5.22;;;1.70;;
19848;SDS011;10085;51.120;6.956;2023-04-03T17:21:58;4.63;;;2.20;;
19848;SDS011;10085;51.120;6.956;2023-04-03T17:27:02;8.25;;;4.35;;
19848;SDS011;10085;51.120;6.956;2023-04-03T17:32:05;171.07;;;65.80;;
19848;SDS011;10085;51.120;6.956;2023-04-03T17:37:08;360.95;;;129.38;;
19848;SDS011;10085;51.120;6.956;2023-04-03T17:42:13;316.92;;;123.15;;
19848;SDS011;10085;51.120;6.956;2023-04-03T17:47:16;273.27;;;104.95;;
19848;SDS011;10085;51.120;6.956;2023-04-03T17:52:19;153.15;;;61.03;;
19848;SDS011;10085;51.120;6.956;2023-04-03T17:57:25;207.45;;;78.60;;
19848;SDS011;10085;51.120;6.956;2023-04-03T18:02:28;152.38;;;59.10;;
19848;SDS011;10085;51.120;6.956;2023-04-03T18:07:32;205.52;;;77.72;;
19848;SDS011;10085;51.120;6.956;2023-04-03T18:12:36;205.30;;;82.45;;
19848;SDS011;10085;51.120;6.956;2023-04-03T18:17:39;54.25;;;23.00;;
19848;SDS011;10085;51.120;6.956;2023-04-03T18:22:42;167.45;;;64.13;;
19848;SDS011;10085;51.120;6.956;2023-04-03T18:27:47;76.72;;;32.28;;
19848;SDS011;10085;51.120;6.956;2023-04-03T18:32:50;106.10;;;42.17;;
19848;SDS011;10085;51.120;6.956;2023-04-03T18:37:52;99.75;;;40.67;;
19848;SDS011;10085;51.120;6.956;2023-04-03T18:42:57;19.50;;;8.82;;
19848;SDS011;10085;51.120;6.956;2023-04-03T18:48:05;36.85;;;15.13;;
19848;SDS011;10085;51.120;6.956;2023-04-03T18:53:08;40.38;;;16.15;;
19848;SDS011;10085;51.120;6.956;2023-04-03T18:58:12;73.95;;;29.10;;
19848;SDS011;10085;51.120;6.956;2023-04-03T19:03:15;35.25;;;14.98;;
19848;SDS011;10085;51.120;6.956;2023-04-03T19:14:01;46.22;;;18.83;;
19848;SDS011;10085;51.120;6.956;2023-04-03T19:19:16;40.30;;;16.85;;
19848;SDS011;10085;51.120;6.956;2023-04-03T19:29:48;39.50;;;17.80;;
19848;SDS011;10085;51.120;6.956;2023-04-03T19:40:19;49.95;;;20.90;;
19848;SDS011;10085;51.120;6.956;2023-04-03T19:45:23;43.03;;;18.42;;
19848;SDS011;10085;51.120;6.956;2023-04-03T19:50:28;40.70;;;14.05;;
19848;SDS011;10085;51.120;6.956;2023-04-03T19:55:34;35.65;;;13.95;;
19848;SDS011;10085;51.120;6.956;2023-04-03T20:00:38;51.28;;;19.10;;
19848;SDS011;10085;51.120;6.956;2023-04-03T20:05:41;38.22;;;15.60;;
19848;SDS011;10085;51.120;6.956;2023-04-03T20:10:43;38.58;;;15.02;;
19848;SDS011;10085;51.120;6.956;2023-04-03T20:15:48;35.08;;;14.15;;
19848;SDS011;10085;51.120;6.956;2023-04-03T20:20:51;29.05;;;11.35;;
19848;SDS011;10085;51.120;6.956;2023-04-03T20:25:54;25.20;;;10.02;;
19848;SDS011;10085;51.120;6.956;2023-04-03T20:31:11;36.13;;;13.95;;
19848;SDS011;10085;51.120;6.956;2023-04-03T20:36:14;27.58;;;12.20;;
19848;SDS011;10085;51.120;6.956;2023-04-03T20:41:28;25.20;;;10.27;;
19848;SDS011;10085;51.120;6.956;2023-04-03T20:46:33;35.55;;;12.95;;
19848;SDS011;10085;51.120;6.956;2023-04-03T20:51:52;31.95;;;12.55;;
19848;SDS011;10085;51.120;6.956;2023-04-03T20:56:55;30.77;;;13.10;;
19848;SDS011;10085;51.120;6.956;2023-04-03T21:01:59;28.13;;;12.50;;
19848;SDS011;10085;51.120;6.956;2023-04-03T21:24:01;22.58;;;9.98;;
19848;SDS011;10085;51.120;6.956;2023-04-03T21:29:07;25.10;;;10.55;;
19848;SDS011;10085;51.120;6.956;2023-04-03T21:34:11;25.15;;;10.70;;
19848;SDS011;10085;51.120;6.956;2023-04-03T21:39:14;23.63;;;9.82;;
19848;SDS011;10085;51.120;6.956;2023-04-03T21:44:17;23.42;;;9.43;;
19848;SDS011;10085;51.120;6.956;2023-04-03T21:49:22;22.58;;;9.00;;
19848;SDS011;10085;51.120;6.956;2023-04-03T21:54:25;20.77;;;8.98;;
19848;SDS011;10085;51.120;6.956;2023-04-03T21:59:28;17.83;;;8.40;;
19848;SDS011;10085;51.120;6.956;2023-04-03T22:04:33;17.73;;;7.93;;
19848;SDS011;10085;51.120;6.956;2023-04-03T22:09:35;15.50;;;7.55;;
19848;SDS011;10085;51.120;6.956;2023-04-03T22:14:38;16.70;;;7.30;;
19848;SDS011;10085;51.120;6.956;2023-04-03T22:19:42;16.63;;;6.63;;
19848;SDS011;10085;51.120;6.956;2023-04-03T22:24:45;13.77;;;7.00;;
19848;SDS011;10085;51.120;6.956;2023-04-03T22:29:48;13.88;;;6.90;;
19848;SDS011;10085;51.120;6.956;2023-04-03T22:34:52;16.02;;;7.07;;
19848;SDS011;10085;51.120;6.956;2023-04-03T22:39:55;14.57;;;7.13;;
19848;SDS011;10085;51.120;6.956;2023-04-03T22:44:57;17.33;;;7.53;;
19848;SDS011;10085;51.120;6.956;2023-04-03T22:55:29;13.25;;;6.72;;
19848;SDS011;10085;51.120;6.956;2023-04-03T23:00:32;13.43;;;6.05;;
19848;SDS011;10085;51.120;6.956;2023-04-03T23:05:36;12.45;;;5.65;;
19848;SDS011;10085;51.120;6.956;2023-04-03T23:10:41;13.10;;;6.00;;
19848;SDS011;10085;51.120;6.956;2023-04-03T23:15:43;9.93;;;5.32;;
19848;SDS011;10085;51.120;6.956;2023-04-03T23:20:47;14.05;;;6.00;;
19848;SDS011;10085;51.120;6.956;2023-04-03T23:25:52;11.68;;;6.32;;
19848;SDS011;10085;51.120;6.956;2023-04-03T23:30:58;9.25;;;5.40;;
19848;SDS011;10085;51.120;6.956;2023-04-03T23:36:06;11.32;;;5.20;;
19848;SDS011;10085;51.120;6.956;2023-04-03T23:41:09;10.82;;;5.53;;
19848;SDS011;10085;51.120;6.956;2023-04-03T23:46:13;8.60;;;4.63;;
19848;SDS011;10085;51.120;6.956;2023-04-03T23:51:17;9.63;;;4.63;;
19848;SDS011;10085;51.120;6.956;2023-04-03T23:56:20;7.68;;;4.22;;
